sensor_id;sensor_type;location;lat;lon;timestamp;pressure;altitude;pressure_sealevel;temperature;humidity
9774;BME280;4926;42.670;23.316;2023-02-23T00:00:25;94370.28;;;9.59;65.58
9774;BME280;4926;42.670;23.316;2023-02-23T00:02:54;94383.31;;;9.37;67.00
9774;BME280;4926;42.670;23.316;2023-02-23T00:05:23;94379.13;;;9.31;67.68
9774;BME280;4926;42.670;23.316;2023-02-23T00:07:55;94384.03;;;9.19;67.65
9774;BME280;4926;42.670;23.316;2023-02-23T00:10:22;94389.41;;;9.14;67.96
9774;BME280;4926;42.670;23.316;2023-02-23T00:12:56;94395.38;;;9.01;68.66
9774;BME280;4926;42.670;23.316;2023-02-23T00:15:25;94393.84;;;8.95;68.68
9774;BME280;4926;42.670;23.316;2023-02-23T00:17:53;94389.06;;;9.21;68.20
9774;BME280;4926;42.670;23.316;2023-02-23T00:20:21;94394.84;;;9.28;67.78
9774;BME280;4926;42.670;23.316;2023-02-23T00:22:52;94382.81;;;9.35;67.34
9774;BME280;4926;42.670;23.316;2023-02-23T00:25:19;94387.25;;;9.40;67.18
9774;BME280;4926;42.670;23.316;2023-02-23T00:27:52;94398.63;;;9.45;67.13
9774;BME280;4926;42.670;23.316;2023-02-23T00:30:19;94401.00;;;9.47;67.31
9774;BME280;4926;42.670;23.316;2023-02-23T00:32:49;94389.59;;;9.46;67.01
9774;BME280;4926;42.670;23.316;2023-02-23T00:35:16;94395.28;;;9.58;66.90
9774;BME280;4926;42.670;23.316;2023-02-23T00:37:44;94394.72;;;9.61;66.64
9774;BME280;4926;42.670;23.316;2023-02-23T00:40:12;94403.84;;;9.32;67.71
9774;BME280;4926;42.670;23.316;2023-02-23T00:42:42;94404.09;;;9.07;68.72
9774;BME280;4926;42.670;23.316;2023-02-23T00:45:10;94404.53;;;8.90;69.53
9774;BME280;4926;42.670;23.316;2023-02-23T00:47:38;94400.50;;;8.64;70.71
9774;BME280;4926;42.670;23.316;2023-02-23T00:50:07;94400.69;;;8.39;71.25
9774;BME280;4926;42.670;23.316;2023-02-23T00:52:37;94402.91;;;8.27;72.10
9774;BME280;4926;42.670;23.316;2023-02-23T00:55:05;94406.13;;;8.14;71.76
9774;BME280;4926;42.670;23.316;2023-02-23T00:57:33;94404.66;;;7.98;72.38
9774;BME280;4926;42.670;23.316;2023-02-23T01:00:00;94392.97;;;7.99;71.87
9774;BME280;4926;42.670;23.316;2023-02-23T01:02:37;94397.78;;;7.91;72.25
9774;BME280;4926;42.670;23.316;2023-02-23T01:05:04;94399.09;;;7.89;72.11
9774;BME280;4926;42.670;23.316;2023-02-23T01:07:35;94405.00;;;7.81;72.33
9774;BME280;4926;42.670;23.316;2023-02-23T01:10:07;94410.09;;;7.67;72.63
9774;BME280;4926;42.670;23.316;2023-02-23T01:12:48;94415.41;;;7.67;72.85
9774;BME280;4926;42.670;23.316;2023-02-23T01:15:15;94414.09;;;7.60;73.44
9774;BME280;4926;42.670;23.316;2023-02-23T01:17:42;94411.75;;;7.53;73.20
9774;BME280;4926;42.670;23.316;2023-02-23T01:20:14;94412.59;;;7.39;73.17
9774;BME280;4926;42.670;23.316;2023-02-23T01:22:47;94411.91;;;7.08;74.07
9774;BME280;4926;42.670;23.316;2023-02-23T01:25:14;94407.13;;;7.00;75.27
9774;BME280;4926;42.670;23.316;2023-02-23T01:27:42;94405.53;;;7.04;75.76
9774;BME280;4926;42.670;23.316;2023-02-23T01:30:11;94408.91;;;7.25;75.10
9774;BME280;4926;42.670;23.316;2023-02-23T01:32:39;94410.22;;;7.32;75.17
9774;BME280;4926;42.670;23.316;2023-02-23T01:35:09;94409.41;;;7.37;74.64
9774;BME280;4926;42.670;23.316;2023-02-23T01:37:38;94407.56;;;7.37;74.68
9774;BME280;4926;42.670;23.316;2023-02-23T01:40:12;94406.53;;;7.28;74.97
9774;BME280;4926;42.670;23.316;2023-02-23T01:42:41;94404.66;;;7.34;74.68
9774;BME280;4926;42.670;23.316;2023-02-23T01:45:27;94407.59;;;7.32;74.71
9774;BME280;4926;42.670;23.316;2023-02-23T01:47:56;94406.25;;;7.30;75.10
9774;BME280;4926;42.670;23.316;2023-02-23T01:50:27;94403.09;;;7.33;75.04
9774;BME280;4926;42.670;23.316;2023-02-23T01:52:55;94394.91;;;7.29;75.50
9774;BME280;4926;42.670;23.316;2023-02-23T01:55:25;94402.81;;;7.34;75.45
9774;BME280;4926;42.670;23.316;2023-02-23T01:57:58;94399.84;;;7.46;75.11
9774;BME280;4926;42.670;23.316;2023-02-23T02:00:27;94398.22;;;7.60;74.64
9774;BME280;4926;42.670;23.316;2023-02-23T02:03:01;94396.75;;;7.82;73.85
9774;BME280;4926;42.670;23.316;2023-02-23T02:05:34;94388.72;;;8.03;72.66
9774;BME280;4926;42.670;23.316;2023-02-23T02:08:02;94391.81;;;8.15;72.15
9774;BME280;4926;42.670;23.316;2023-02-23T02:10:32;94389.13;;;8.20;71.96
9774;BME280;4926;42.670;23.316;2023-02-23T02:13:18;94382.75;;;8.26;71.84
9774;BME280;4926;42.670;23.316;2023-02-23T02:16:04;94385.63;;;8.34;71.35
9774;BME280;4926;42.670;23.316;2023-02-23T02:18:48;94375.25;;;8.38;71.08
9774;BME280;4926;42.670;23.316;2023-02-23T02:21:42;94376.78;;;8.44;71.42
9774;BME280;4926;42.670;23.316;2023-02-23T02:24:39;94386.25;;;8.55;71.07
9774;BME280;4926;42.670;23.316;2023-02-23T02:27:25;94384.66;;;8.54;71.07
9774;BME280;4926;42.670;23.316;2023-02-23T02:30:15;94385.44;;;8.54;70.93
9774;BME280;4926;42.670;23.316;2023-02-23T02:33:09;94393.44;;;8.49;71.02
9774;BME280;4926;42.670;23.316;2023-02-23T02:36:06;94386.88;;;8.42;70.81
9774;BME280;4926;42.670;23.316;2023-02-23T02:38:45;94388.69;;;8.08;72.61
9774;BME280;4926;42.670;23.316;2023-02-23T02:41:24;94396.22;;;7.90;73.47
9774;BME280;4926;42.670;23.316;2023-02-23T02:44:04;94401.03;;;7.73;74.83
9774;BME280;4926;42.670;23.316;2023-02-23T02:46:37;94396.91;;;7.57;75.65
9774;BME280;4926;42.670;23.316;2023-02-23T02:49:09;94389.59;;;7.29;77.01
9774;BME280;4926;42.670;23.316;2023-02-23T02:51:42;94401.78;;;7.25;77.95
9774;BME280;4926;42.670;23.316;2023-02-23T02:54:19;94398.84;;;7.32;78.03
9774;BME280;4926;42.670;23.316;2023-02-23T02:56:51;94396.72;;;7.34;78.27
9774;BME280;4926;42.670;23.316;2023-02-23T02:59:22;94396.41;;;7.45;78.54
9774;BME280;4926;42.670;23.316;2023-02-23T03:02:13;94394.75;;;7.59;78.05
9774;BME280;4926;42.670;23.316;2023-02-23T03:04:58;94392.56;;;7.76;77.20
9774;BME280;4926;42.670;23.316;2023-02-23T03:07:47;94399.16;;;7.79;77.23
9774;BME280;4926;42.670;23.316;2023-02-23T03:10:41;94393.06;;;7.83;77.05
9774;BME280;4926;42.670;23.316;2023-02-23T03:13:38;94393.81;;;7.89;76.75
9774;BME280;4926;42.670;23.316;2023-02-23T03:16:35;94398.59;;;7.92;76.86
9774;BME280;4926;42.670;23.316;2023-02-23T03:19:24;94394.16;;;7.77;77.41
9774;BME280;4926;42.670;23.316;2023-02-23T03:22:16;94401.25;;;7.82;77.74
9774;BME280;4926;42.670;23.316;2023-02-23T03:25:05;94407.38;;;7.82;77.80
9774;BME280;4926;42.670;23.316;2023-02-23T03:27:58;94398.63;;;7.82;77.68
9774;BME280;4926;42.670;23.316;2023-02-23T03:30:53;94406.28;;;7.88;76.95
9774;BME280;4926;42.670;23.316;2023-02-23T03:33:45;94405.22;;;7.89;76.66
9774;BME280;4926;42.670;23.316;2023-02-23T03:36:36;94405.25;;;7.84;76.52
9774;BME280;4926;42.670;23.316;2023-02-23T03:39:26;94408.50;;;7.71;76.74
9774;BME280;4926;42.670;23.316;2023-02-23T03:42:17;94416.94;;;7.73;76.97
9774;BME280;4926;42.670;23.316;2023-02-23T03:45:08;94411.63;;;7.78;76.74
9774;BME280;4926;42.670;23.316;2023-02-23T03:47:55;94421.13;;;7.84;76.17
9774;BME280;4926;42.670;23.316;2023-02-23T03:50:43;94421.13;;;7.84;75.95
9774;BME280;4926;42.670;23.316;2023-02-23T03:53:33;94424.88;;;7.83;75.91
9774;BME280;4926;42.670;23.316;2023-02-23T03:56:25;94419.56;;;7.78;75.86
9774;BME280;4926;42.670;23.316;2023-02-23T03:59:11;94426.53;;;7.69;75.70
9774;BME280;4926;42.670;23.316;2023-02-23T04:02:00;94431.59;;;7.56;76.29
9774;BME280;4926;42.670;23.316;2023-02-23T04:04:45;94432.41;;;7.51;77.03
9774;BME280;4926;42.670;23.316;2023-02-23T04:07:33;94435.06;;;7.46;77.02
9774;BME280;4926;42.670;23.316;2023-02-23T04:10:18;94432.44;;;7.46;77.56
9774;BME280;4926;42.670;23.316;2023-02-23T04:13:06;94431.63;;;7.46;78.08
9774;BME280;4926;42.670;23.316;2023-02-23T04:15:47;94426.59;;;7.44;78.64
9774;BME280;4926;42.670;23.316;2023-02-23T04:18:16;94411.28;;;7.36;78.58
9774;BME280;4926;42.670;23.316;2023-02-23T04:20:47;94416.28;;;7.43;78.80
9774;BME280;4926;42.670;23.316;2023-02-23T04:23:20;94433.47;;;7.50;79.17
9774;BME280;4926;42.670;23.316;2023-02-23T04:25:53;94432.69;;;7.50;79.19
9774;BME280;4926;42.670;23.316;2023-02-23T04:28:21;94421.84;;;7.46;79.36
9774;BME280;4926;42.670;23.316;2023-02-23T04:30:49;94423.72;;;7.41;79.87
9774;BME280;4926;42.670;23.316;2023-02-23T04:33:18;94430.59;;;7.47;79.89
9774;BME280;4926;42.670;23.316;2023-02-23T04:35:45;94423.97;;;7.44;79.70
9774;BME280;4926;42.670;23.316;2023-02-23T04:38:12;94433.97;;;7.52;79.76
9774;BME280;4926;42.670;23.316;2023-02-23T04:40:39;94434.25;;;7.51;79.47
9774;BME280;4926;42.670;23.316;2023-02-23T04:43:06;94437.97;;;7.50;80.04
9774;BME280;4926;42.670;23.316;2023-02-23T04:45:36;94428.72;;;7.47;79.92
9774;BME280;4926;42.670;23.316;2023-02-23T04:48:03;94432.44;;;7.41;80.25
9774;BME280;4926;42.670;23.316;2023-02-23T04:50:31;94433.47;;;7.50;79.64
9774;BME280;4926;42.670;23.316;2023-02-23T04:53:02;94429.78;;;7.46;80.05
9774;BME280;4926;42.670;23.316;2023-02-23T04:55:30;94433.47;;;7.50;80.86
9774;BME280;4926;42.670;23.316;2023-02-23T04:57:58;94442.97;;;7.56;81.16
9774;BME280;4926;42.670;23.316;2023-02-23T05:00:25;94431.84;;;7.64;80.29
9774;BME280;4926;42.670;23.316;2023-02-23T05:02:53;94439.53;;;7.61;80.14
9774;BME280;4926;42.670;23.316;2023-02-23T05:05:20;94423.41;;;7.57;80.07
9774;BME280;4926;42.670;23.316;2023-02-23T05:07:48;94437.94;;;7.60;79.75
9774;BME280;4926;42.670;23.316;2023-02-23T05:10:15;94430.25;;;7.58;79.40
9774;BME280;4926;42.670;23.316;2023-02-23T05:12:47;94430.56;;;7.52;79.68
9774;BME280;4926;42.670;23.316;2023-02-23T05:15:19;94431.88;;;7.49;79.77
9774;BME280;4926;42.670;23.316;2023-02-23T05:17:49;94431.63;;;7.46;79.95
9774;BME280;4926;42.670;23.316;2023-02-23T05:20:16;94443.03;;;7.46;79.82
9774;BME280;4926;42.670;23.316;2023-02-23T05:22:43;94453.06;;;7.49;79.65
9774;BME280;4926;42.670;23.316;2023-02-23T05:25:12;94449.38;;;7.50;79.82
9774;BME280;4926;42.670;23.316;2023-02-23T05:27:40;94445.38;;;7.53;79.81
9774;BME280;4926;42.670;23.316;2023-02-23T05:30:08;94440.63;;;7.50;79.92
9774;BME280;4926;42.670;23.316;2023-02-23T05:32:35;94451.50;;;7.38;79.97
9774;BME280;4926;42.670;23.316;2023-02-23T05:35:05;94450.47;;;7.34;80.50
9774;BME280;4926;42.670;23.316;2023-02-23T05:37:33;94458.41;;;7.24;80.34
9774;BME280;4926;42.670;23.316;2023-02-23T05:39:59;94453.72;;;6.86;82.16
9774;BME280;4926;42.670;23.316;2023-02-23T05:42:34;94465.59;;;6.33;86.39
9774;BME280;4926;42.670;23.316;2023-02-23T05:45:05;94471.09;;;6.02;89.80
9774;BME280;4926;42.670;23.316;2023-02-23T05:47:32;94471.59;;;5.94;92.59
9774;BME280;4926;42.670;23.316;2023-02-23T05:50:06;94467.84;;;5.85;94.28
9774;BME280;4926;42.670;23.316;2023-02-23T05:52:36;94466.81;;;5.86;95.07
9774;BME280;4926;42.670;23.316;2023-02-23T05:55:04;94468.41;;;5.92;95.31
9774;BME280;4926;42.670;23.316;2023-02-23T05:57:36;94472.16;;;6.06;95.10
9774;BME280;4926;42.670;23.316;2023-02-23T06:00:05;94470.59;;;6.30;93.96
9774;BME280;4926;42.670;23.316;2023-02-23T06:02:32;94474.84;;;6.31;91.88
9774;BME280;4926;42.670;23.316;2023-02-23T06:04:59;94472.22;;;6.31;91.30
9774;BME280;4926;42.670;23.316;2023-02-23T06:07:26;94462.19;;;6.38;89.76
9774;BME280;4926;42.670;23.316;2023-02-23T06:09:52;94474.34;;;6.49;89.28
9774;BME280;4926;42.670;23.316;2023-02-23T06:12:22;94468.56;;;6.82;88.43
9774;BME280;4926;42.670;23.316;2023-02-23T06:14:50;94474.31;;;7.19;86.53
9774;BME280;4926;42.670;23.316;2023-02-23T06:17:17;94489.34;;;7.54;84.96
9774;BME280;4926;42.670;23.316;2023-02-23T06:19:43;94484.22;;;7.82;83.15
9774;BME280;4926;42.670;23.316;2023-02-23T06:22:10;94477.22;;;8.02;81.66
9774;BME280;4926;42.670;23.316;2023-02-23T06:24:37;94472.94;;;8.16;80.26
9774;BME280;4926;42.670;23.316;2023-02-23T06:27:03;94477.22;;;8.02;75.43
9774;BME280;4926;42.670;23.316;2023-02-23T06:29:39;94482.09;;;7.84;75.74
9774;BME280;4926;42.670;23.316;2023-02-23T06:32:08;94482.34;;;7.88;75.60
9774;BME280;4926;42.670;23.316;2023-02-23T06:34:37;94491.75;;;7.50;75.80
9774;BME280;4926;42.670;23.316;2023-02-23T06:37:04;94493.88;;;7.33;76.63
9774;BME280;4926;42.670;23.316;2023-02-23T06:39:36;94489.69;;;7.17;77.41
9774;BME280;4926;42.670;23.316;2023-02-23T06:42:03;94498.38;;;7.28;77.66
9774;BME280;4926;42.670;23.316;2023-02-23T06:44:30;94495.66;;;7.63;77.26
9774;BME280;4926;42.670;23.316;2023-02-23T06:46:59;94495.78;;;8.02;76.50
9774;BME280;4926;42.670;23.316;2023-02-23T06:49:27;94488.19;;;8.44;75.25
9774;BME280;4926;42.670;23.316;2023-02-23T06:51:54;94487.66;;;8.80;74.43
9774;BME280;4926;42.670;23.316;2023-02-23T06:54:24;94480.16;;;9.21;72.90
9774;BME280;4926;42.670;23.316;2023-02-23T06:56:51;94473.75;;;9.51;71.90
9774;BME280;4926;42.670;23.316;2023-02-23T06:59:19;94490.56;;;9.93;70.49
9774;BME280;4926;42.670;23.316;2023-02-23T07:01:46;94477.94;;;10.28;68.75
9774;BME280;4926;42.670;23.316;2023-02-23T07:04:13;94471.69;;;10.56;67.13
9774;BME280;4926;42.670;23.316;2023-02-23T07:06:43;94477.28;;;10.91;65.00
9774;BME280;4926;42.670;23.316;2023-02-23T07:09:09;94472.53;;;11.20;63.64
9774;BME280;4926;42.670;23.316;2023-02-23T07:11:39;94459.84;;;11.58;61.95
9774;BME280;4926;42.670;23.316;2023-02-23T07:14:10;94458.81;;;11.86;60.24
9774;BME280;4926;42.670;23.316;2023-02-23T07:16:37;94453.97;;;12.15;59.18
9774;BME280;4926;42.670;23.316;2023-02-23T07:19:04;94459.97;;;12.34;57.88
9774;BME280;4926;42.670;23.316;2023-02-23T07:21:32;94457.16;;;12.17;57.91
9774;BME280;4926;42.670;23.316;2023-02-23T07:24:02;94453.75;;;12.25;57.35
9774;BME280;4926;42.670;23.316;2023-02-23T07:26:29;94459.66;;;11.55;58.80
9774;BME280;4926;42.670;23.316;2023-02-23T07:28:57;94464.94;;;11.73;59.13
9774;BME280;4926;42.670;23.316;2023-02-23T07:31:27;94453.19;;;11.88;58.05
9774;BME280;4926;42.670;23.316;2023-02-23T07:33:54;94453.31;;;11.96;57.73
9774;BME280;4926;42.670;23.316;2023-02-23T07:36:21;94460.03;;;11.80;58.24
9774;BME280;4926;42.670;23.316;2023-02-23T07:38:49;94446.25;;;12.27;57.18
9774;BME280;4926;42.670;23.316;2023-02-23T07:41:17;94450.56;;;12.73;55.92
9774;BME280;4926;42.670;23.316;2023-02-23T07:43:44;94439.31;;;12.26;56.58
9774;BME280;4926;42.670;23.316;2023-02-23T07:46:11;94438.66;;;12.57;56.77
9774;BME280;4926;42.670;23.316;2023-02-23T07:48:39;94437.84;;;12.70;55.02
9774;BME280;4926;42.670;23.316;2023-02-23T07:51:09;94433.22;;;12.84;54.63
9774;BME280;4926;42.670;23.316;2023-02-23T07:53:37;94431.56;;;13.10;54.76
9774;BME280;4926;42.670;23.316;2023-02-23T07:56:07;94432.13;;;12.49;55.75
9774;BME280;4926;42.670;23.316;2023-02-23T07:58:37;94423.19;;;12.67;55.18
9774;BME280;4926;42.670;23.316;2023-02-23T08:01:04;94429.66;;;12.53;55.34
9774;BME280;4926;42.670;23.316;2023-02-23T08:03:33;94430.84;;;12.11;56.94
9774;BME280;4926;42.670;23.316;2023-02-23T08:06:03;94437.84;;;12.20;56.18
9774;BME280;4926;42.670;23.316;2023-02-23T08:08:36;94428.09;;;12.74;55.43
9774;BME280;4926;42.670;23.316;2023-02-23T08:11:07;94429.09;;;13.83;53.29
9774;BME280;4926;42.670;23.316;2023-02-23T08:13:33;94396.66;;;14.49;51.11
9774;BME280;4926;42.670;23.316;2023-02-23T08:16:03;94412.88;;;14.96;50.09
9774;BME280;4926;42.670;23.316;2023-02-23T08:18:30;94403.19;;;15.37;49.02
9774;BME280;4926;42.670;23.316;2023-02-23T08:20:59;94399.09;;;15.40;48.43
9774;BME280;4926;42.670;23.316;2023-02-23T08:23:28;94398.91;;;15.45;48.30
9774;BME280;4926;42.670;23.316;2023-02-23T08:25:57;94398.22;;;15.65;47.79
9774;BME280;4926;42.670;23.316;2023-02-23T08:28:24;94398.88;;;15.62;47.79
9774;BME280;4926;42.670;23.316;2023-02-23T08:30:53;94410.22;;;15.59;48.12
9774;BME280;4926;42.670;23.316;2023-02-23T08:33:22;94392.56;;;15.96;46.98
9774;BME280;4926;42.670;23.316;2023-02-23T08:35:49;94390.84;;;15.91;47.13
9774;BME280;4926;42.670;23.316;2023-02-23T08:38:20;94388.94;;;16.21;46.60
9774;BME280;4926;42.670;23.316;2023-02-23T08:40:49;94383.75;;;16.65;46.04
9774;BME280;4926;42.670;23.316;2023-02-23T08:43:18;94380.50;;;17.25;44.58
9774;BME280;4926;42.670;23.316;2023-02-23T08:45:46;94370.53;;;17.70;43.72
9774;BME280;4926;42.670;23.316;2023-02-23T08:48:13;94348.69;;;17.84;42.89
9774;BME280;4926;42.670;23.316;2023-02-23T08:50:41;94358.06;;;18.14;42.63
9774;BME280;4926;42.670;23.316;2023-02-23T08:53:11;94366.75;;;17.83;43.38
9774;BME280;4926;42.670;23.316;2023-02-23T08:55:41;94353.16;;;18.04;42.55
9774;BME280;4926;42.670;23.316;2023-02-23T08:58:16;94345.75;;;18.13;42.49
9774;BME280;4926;42.670;23.316;2023-02-23T09:00:45;94361.00;;;17.61;42.96
9774;BME280;4926;42.670;23.316;2023-02-23T09:03:14;94359.19;;;18.37;42.02
9774;BME280;4926;42.670;23.316;2023-02-23T09:05:42;94349.56;;;18.24;42.11
9774;BME280;4926;42.670;23.316;2023-02-23T09:08:09;94345.56;;;18.70;41.51
9774;BME280;4926;42.670;23.316;2023-02-23T09:10:38;94334.06;;;19.01;40.82
9774;BME280;4926;42.670;23.316;2023-02-23T09:13:12;94344.97;;;19.20;40.66
9774;BME280;4926;42.670;23.316;2023-02-23T09:15:40;94334.53;;;19.18;40.39
9774;BME280;4926;42.670;23.316;2023-02-23T09:18:10;94335.47;;;19.38;39.93
9774;BME280;4926;42.670;23.316;2023-02-23T09:20:42;94321.53;;;19.67;39.57
9774;BME280;4926;42.670;23.316;2023-02-23T09:23:09;94331.13;;;19.49;39.64
9774;BME280;4926;42.670;23.316;2023-02-23T09:25:38;94323.28;;;19.44;40.01
9774;BME280;4926;42.670;23.316;2023-02-23T09:28:08;94325.91;;;19.87;39.51
9774;BME280;4926;42.670;23.316;2023-02-23T09:30:38;94316.00;;;20.10;39.01
9774;BME280;4926;42.670;23.316;2023-02-23T09:33:07;94318.88;;;20.17;38.84
9774;BME280;4926;42.670;23.316;2023-02-23T09:35:34;94318.28;;;20.24;38.59
9774;BME280;4926;42.670;23.316;2023-02-23T09:38:05;94318.97;;;20.36;38.29
9774;BME280;4926;42.670;23.316;2023-02-23T09:40:45;94316.78;;;21.18;37.49
9774;BME280;4926;42.670;23.316;2023-02-23T09:43:15;94311.00;;;21.20;37.39
9774;BME280;4926;42.670;23.316;2023-02-23T09:45:50;94315.22;;;21.62;36.63
9774;BME280;4926;42.670;23.316;2023-02-23T09:48:19;94302.28;;;21.75;36.05
9774;BME280;4926;42.670;23.316;2023-02-23T09:50:49;94305.38;;;21.09;37.00
9774;BME280;4926;42.670;23.316;2023-02-23T09:53:26;94305.31;;;20.86;37.40
9774;BME280;4926;42.670;23.316;2023-02-23T09:55:57;94298.84;;;21.33;36.64
9774;BME280;4926;42.670;23.316;2023-02-23T09:58:26;94294.78;;;21.42;36.50
9774;BME280;4926;42.670;23.316;2023-02-23T10:01:42;94293.59;;;21.21;37.07
9774;BME280;4926;42.670;23.316;2023-02-23T10:04:18;94289.34;;;21.20;36.47
9774;BME280;4926;42.670;23.316;2023-02-23T10:06:53;94296.16;;;20.18;38.13
9774;BME280;4926;42.670;23.316;2023-02-23T10:09:30;94291.63;;;20.79;37.13
9774;BME280;4926;42.670;23.316;2023-02-23T10:12:09;94294.84;;;21.46;36.36
9774;BME280;4926;42.670;23.316;2023-02-23T10:14:51;94283.69;;;21.51;36.19
9774;BME280;4926;42.670;23.316;2023-02-23T10:17:31;94277.28;;;21.17;36.49
9774;BME280;4926;42.670;23.316;2023-02-23T10:20:09;94281.25;;;21.00;36.51
9774;BME280;4926;42.670;23.316;2023-02-23T10:22:39;94267.38;;;21.25;36.22
9774;BME280;4926;42.670;23.316;2023-02-23T10:25:10;94268.69;;;21.12;36.43
9774;BME280;4926;42.670;23.316;2023-02-23T10:27:40;94269.91;;;20.95;36.46
9774;BME280;4926;42.670;23.316;2023-02-23T10:30:18;94259.56;;;21.20;36.47
9774;BME280;4926;42.670;23.316;2023-02-23T10:32:51;94253.22;;;21.35;36.06
9774;BME280;4926;42.670;23.316;2023-02-23T10:35:21;94245.63;;;21.89;35.50
9774;BME280;4926;42.670;23.316;2023-02-23T10:37:49;94237.72;;;22.33;34.68
9774;BME280;4926;42.670;23.316;2023-02-23T10:40:22;94239.94;;;21.97;35.25
9774;BME280;4926;42.670;23.316;2023-02-23T10:42:50;94246.88;;;21.95;35.22
9774;BME280;4926;42.670;23.316;2023-02-23T10:45:20;94238.13;;;22.05;34.98
9774;BME280;4926;42.670;23.316;2023-02-23T10:47:54;94234.41;;;22.46;34.53
9774;BME280;4926;42.670;23.316;2023-02-23T10:50:24;94224.44;;;22.24;34.49
9774;BME280;4926;42.670;23.316;2023-02-23T10:52:56;94219.22;;;22.12;34.77
9774;BME280;4926;42.670;23.316;2023-02-23T10:55:28;94229.06;;;21.23;35.73
9774;BME280;4926;42.670;23.316;2023-02-23T10:58:04;94239.44;;;19.87;37.44
9774;BME280;4926;42.670;23.316;2023-02-23T11:00:34;94244.88;;;19.09;38.72
9774;BME280;4926;42.670;23.316;2023-02-23T11:03:16;94234.59;;;18.56;39.62
9774;BME280;4926;42.670;23.316;2023-02-23T11:05:45;94255.47;;;17.55;41.36
9774;BME280;4926;42.670;23.316;2023-02-23T11:08:21;94254.63;;;17.07;42.29
9774;BME280;4926;42.670;23.316;2023-02-23T11:11:06;94253.41;;;16.71;43.31
9774;BME280;4926;42.670;23.316;2023-02-23T11:13:36;94262.78;;;16.65;43.52
9774;BME280;4926;42.670;23.316;2023-02-23T11:16:09;94261.34;;;16.35;44.03
9774;BME280;4926;42.670;23.316;2023-02-23T11:18:39;94264.09;;;16.47;44.08
9774;BME280;4926;42.670;23.316;2023-02-23T11:21:17;94258.97;;;16.54;43.98
9774;BME280;4926;42.670;23.316;2023-02-23T11:23:52;94253.94;;;16.53;44.25
9774;BME280;4926;42.670;23.316;2023-02-23T11:26:29;94252.69;;;16.50;44.20
9774;BME280;4926;42.670;23.316;2023-02-23T11:28:58;94252.03;;;16.65;44.08
9774;BME280;4926;42.670;23.316;2023-02-23T11:31:31;94231.88;;;16.59;44.01
9774;BME280;4926;42.670;23.316;2023-02-23T11:34:01;94249.31;;;16.53;44.62
9774;BME280;4926;42.670;23.316;2023-02-23T11:36:31;94247.81;;;16.44;44.51
9774;BME280;4926;42.670;23.316;2023-02-23T11:39:06;94245.53;;;16.54;44.43
9774;BME280;4926;42.670;23.316;2023-02-23T11:41:35;94250.28;;;16.69;44.33
9774;BME280;4926;42.670;23.316;2023-02-23T11:44:02;94245.94;;;16.77;44.47
9774;BME280;4926;42.670;23.316;2023-02-23T11:46:31;94230.47;;;16.74;44.24
9774;BME280;4926;42.670;23.316;2023-02-23T11:49:00;94235.97;;;16.78;44.37
9774;BME280;4926;42.670;23.316;2023-02-23T11:51:39;94230.06;;;16.96;43.88
9774;BME280;4926;42.670;23.316;2023-02-23T11:54:16;94233.00;;;17.03;43.61
9774;BME280;4926;42.670;23.316;2023-02-23T11:56:48;94224.59;;;17.29;43.50
9774;BME280;4926;42.670;23.316;2023-02-23T11:59:18;94225.63;;;17.48;43.05
9774;BME280;4926;42.670;23.316;2023-02-23T12:01:53;94218.09;;;17.66;42.08
9774;BME280;4926;42.670;23.316;2023-02-23T12:04:26;94220.41;;;17.92;41.49
9774;BME280;4926;42.670;23.316;2023-02-23T12:07:21;94213.19;;;18.08;41.52
9774;BME280;4926;42.670;23.316;2023-02-23T12:09:58;94208.56;;;17.80;40.90
9774;BME280;4926;42.670;23.316;2023-02-23T12:12:30;94209.78;;;17.71;41.38
9774;BME280;4926;42.670;23.316;2023-02-23T12:15:05;94211.16;;;17.65;41.41
9774;BME280;4926;42.670;23.316;2023-02-23T12:17:44;94212.22;;;18.00;40.98
9774;BME280;4926;42.670;23.316;2023-02-23T12:20:15;94200.78;;;17.91;40.77
9774;BME280;4926;42.670;23.316;2023-02-23T12:22:45;94207.28;;;17.90;40.96
9774;BME280;4926;42.670;23.316;2023-02-23T12:25:21;94202.06;;;18.09;40.74
9774;BME280;4926;42.670;23.316;2023-02-23T12:27:56;94202.25;;;18.16;40.70
9774;BME280;4926;42.670;23.316;2023-02-23T12:30:37;94194.72;;;17.94;40.49
9774;BME280;4926;42.670;23.316;2023-02-23T12:33:11;94196.78;;;17.73;41.24
9774;BME280;4926;42.670;23.316;2023-02-23T12:35:47;94200.38;;;17.41;41.61
9774;BME280;4926;42.670;23.316;2023-02-23T12:38:24;94207.03;;;16.62;42.27
9774;BME280;4926;42.670;23.316;2023-02-23T12:40:59;94201.41;;;16.55;42.55
9774;BME280;4926;42.670;23.316;2023-02-23T12:43:35;94204.84;;;16.89;42.44
9774;BME280;4926;42.670;23.316;2023-02-23T12:46:08;94207.75;;;17.08;42.71
9774;BME280;4926;42.670;23.316;2023-02-23T12:48:47;94205.06;;;17.20;42.66
9774;BME280;4926;42.670;23.316;2023-02-23T12:51:21;94203.75;;;17.26;42.43
9774;BME280;4926;42.670;23.316;2023-02-23T12:53:51;94198.94;;;17.19;42.69
9774;BME280;4926;42.670;23.316;2023-02-23T12:56:32;94206.41;;;16.78;43.79
9774;BME280;4926;42.670;23.316;2023-02-23T12:59:18;94209.72;;;16.62;44.34
9774;BME280;4926;42.670;23.316;2023-02-23T13:01:53;94207.06;;;16.74;44.50
9774;BME280;4926;42.670;23.316;2023-02-23T13:04:55;94201.06;;;17.02;44.19
9774;BME280;4926;42.670;23.316;2023-02-23T13:07:32;94206.19;;;16.83;44.17
9774;BME280;4926;42.670;23.316;2023-02-23T13:10:11;94203.25;;;16.63;44.79
9774;BME280;4926;42.670;23.316;2023-02-23T13:12:50;94208.78;;;16.91;44.53
9774;BME280;4926;42.670;23.316;2023-02-23T13:15:40;94206.44;;;17.02;43.92
9774;BME280;4926;42.670;23.316;2023-02-23T13:18:22;94202.16;;;17.13;44.02
9774;BME280;4926;42.670;23.316;2023-02-23T13:21:04;94201.28;;;17.21;43.91
9774;BME280;4926;42.670;23.316;2023-02-23T13:23:35;94197.91;;;17.00;43.41
9774;BME280;4926;42.670;23.316;2023-02-23T13:26:13;94206.34;;;16.65;44.24
9774;BME280;4926;42.670;23.316;2023-02-23T13:28:50;94199.34;;;16.40;44.67
9774;BME280;4926;42.670;23.316;2023-02-23T13:31:24;94202.19;;;16.23;44.95
9774;BME280;4926;42.670;23.316;2023-02-23T13:34:00;94197.66;;;16.15;45.16
9774;BME280;4926;42.670;23.316;2023-02-23T13:36:30;94205.50;;;16.20;45.38
9774;BME280;4926;42.670;23.316;2023-02-23T13:42:01;94205.88;;;16.31;44.84
9774;BME280;4926;42.670;23.316;2023-02-23T13:44:37;94197.31;;;16.37;44.83
9774;BME280;4926;42.670;23.316;2023-02-23T13:47:16;94201.88;;;16.57;44.86
9774;BME280;4926;42.670;23.316;2023-02-23T13:49:53;94194.03;;;16.64;44.32
9774;BME280;4926;42.670;23.316;2023-02-23T13:52:28;94199.97;;;16.58;44.45